Terminal Aerodrome Forecast
Issued by NWS

Home | Current Version | Previous Version | Graphics & Text | Print | Product List | Glossary On
Versions: 1 2 3 4 5 6 7 8 9 10 11 12 13 14 15 16 17 18 19 20 21 22
022
FTUS43 KMPX 241209 CCA
TAFRWF
TAF COR
KRWF 241209Z 2412/2512 18003KT 2SM BR SCT006
     FM241245 20007KT P6SM SCT150
     FM250000 14005KT P6SM BKN250=

USA.gov is the U.S. government's official web portal to all federal, state and local government web resources and services.